Weather observations for the past three days for
Maple Lake, Maple Lake Municipal Airport
Imperial (Metric)
Date Time (cdt) Wind (mph) Vis. (mi.) Weather Sky Cond. Temperature (ºF) Relative Humidity Wind Chill (°F) Heat Index (°F) Pressure Precipitation (in)
Air Dwpt 6 hour altimeter (in) sea level (mb) 1 hr 3 hr 6 hr
Max. Min.
03 14:35 NW 10 10.00 Fair CLR 67.8 22.8 18% 29.74 0.0
03 14:15 NW 12 G 24 10.00 Fair CLR 67.8 22.5 18% 29.75 0.0
03 13:55 NW 12 G 21 10.00 Fair CLR 67.1 25.2 20% 29.76 0.0
03 13:35 NW 13 G 20 10.00 Fair CLR 67.1 27.7 23% 29.76 0.0
03 13:15 NW 10 G 16 10.00 Fair CLR 66 27.5 23% 29.76 0.0
03 12:55 N 12 G 22 10.00 Fair CLR 66.2 28 66.4 50.9 24% 29.77 0.0
03 12:35 N 16 G 24 10.00 Fair CLR 66.4 27.5 23% 29.77 0.0
03 12:15 NW 13 G 18 10.00 Fair CLR 66.2 28 24% 29.77 0.0
03 11:55 NW 14 G 22 10.00 Fair CLR 65.1 28.4 25% 29.77 0.0
03 11:35 NW 13 10.00 Fair CLR 64.4 29.5 27% 29.77 0.0
03 11:15 N 14 G 21 10.00 Fair CLR 64.4 33.8 32% 29.77 0.0
03 10:55 NW 15 G 21 10.00 Fair CLR 64.2 34.2 33% 29.77 0.0
03 10:35 NW 12 G 18 10.00 Fair CLR 62.8 33.4 33% 29.77 0.0
03 10:15 NW 16 G 21 10.00 Fair CLR 62.8 34.3 35% 29.77 0.0
03 09:55 N 14 G 18 10.00 Fair CLR 62.1 35.8 38% 29.76 0.0
03 09:35 NW 13 G 17 10.00 Fair CLR 61 37.6 42% 29.76 0.0
03 09:15 N 14 G 18 10.00 Fair CLR 59.7 37.4 44% 29.76 0.0
03 08:55 N 12 G 18 10.00 Fair CLR 58.3 37.2 46% 29.75 0.0
03 08:35 N 13 G 17 10.00 Fair CLR 56.3 36.3 47% 29.75 0.0
03 08:15 N 12 10.00 Fair CLR 55.4 35.6 47% 29.75 0.0
03 07:55 NW 12 10.00 Fair CLR 54 35.6 50% 29.74 0.0
03 07:35 NW 10 G 17 10.00 Fair CLR 52.7 35.6 52% 29.73 0.0
03 07:15 NW 10 G 17 10.00 Fair CLR 51.6 35.4 54% 29.72 0.0
03 06:55 NW 12 G 17 10.00 Fair CLR 50.7 35.6 60.1 43.2 56% 29.71 0.0
03 06:35 NW 10 10.00 Fair CLR 49.8 35.6 58% 46 29.7 0.0
03 06:15 NW 7 10.00 Fair CLR 43.9 34.2 69% 40 29.69 0.0
03 05:55 Calm 10.00 Fair CLR 43.3 33.8 69% 29.68 0.0
03 05:35 Calm 10.00 Fair CLR 45.7 34.7 66% 29.68 0.0
03 05:15 Calm 10.00 Fair CLR 48.7 34.3 58% 29.68 0.0
03 04:55 W 3 10.00 Fair CLR 50.5 33.6 52% 29.68 0.0
03 04:35 S 5 10.00 Fair CLR 52 33.3 49% 29.67 0.0
03 04:15 S 3 10.00 Fair CLR 52.9 33.3 47% 29.68 0.0
03 03:55 SW 3 10.00 Fair CLR 53.8 33.1 46% 29.68 0.0
03 03:35 S 6 10.00 Fair CLR 55.4 32.9 43% 29.69 0.0
03 03:15 S 5 10.00 Fair CLR 55.6 33.3 43% 29.69 0.0
03 02:55 S 5 10.00 Fair CLR 56.1 33.8 43% 29.7 0.0
03 02:35 S 7 10.00 Fair CLR 56.8 33.4 41% 29.69 0.0
03 02:15 S 5 10.00 Partly Cloudy SCT110 57.6 33.4 40% 29.7 0.0
03 01:55 S 7 10.00 Mostly Cloudy BKN110 59.2 32.4 36% 29.7 0.0
03 01:35 S 7 G 20 10.00 Overcast OVC120 60.1 32 35% 29.71 0.0
03 01:15 S 6 10.00 Mostly Cloudy BKN120 59.2 35.1 41% 29.71 0.0
03 00:55 S 3 10.00 Mostly Cloudy BKN120 60.3 33.8 64.8 56.8 37% 29.72 0.0
03 00:35 S 8 10.00 Mostly Cloudy SCT075 BKN120 59.9 35.4 40% 29.73 0.0
03 00:15 SW 6 10.00 Mostly Cloudy BKN085 BKN110 59.9 36 41% 29.75 0.0
02 23:55 SW 6 10.00 Mostly Cloudy SCT085 BKN110 58.3 33.4 39% 29.74 0.0
02 23:35 S 6 10.00 Partly Cloudy SCT120 57.9 31.6 37% 29.75 0.0
02 23:15 S 5 10.00 Fair CLR 56.8 32.5 40% 29.75 0.0
02 22:55 S 5 10.00 Partly Cloudy SCT120 57.7 31.8 38% 29.76 0.0
02 22:35 S 6 10.00 Mostly Cloudy BKN110 58.3 32 37% 29.77 0.0
02 22:15 S 5 10.00 Mostly Cloudy BKN110 57.9 32 38% 29.78 0.0
02 21:55 S 5 10.00 Mostly Cloudy BKN120 58.3 32.5 38% 29.79 0.0
02 21:35 SE 3 10.00 Overcast OVC120 58.5 34.2 40% 29.8 0.0
02 21:15 SE 3 10.00 Mostly Cloudy BKN110 58.5 35.2 42% 29.81 0.0
02 20:55 SE 3 10.00 Partly Cloudy SCT090 59.2 33.8 39% 29.81 0.0
02 20:35 Calm 10.00 Mostly Cloudy BKN090 60.3 32.7 36% 29.82 0.0
02 20:15 S 3 10.00 Mostly Cloudy BKN110 61.2 32 33% 29.83 0.0
02 19:55 SW 7 10.00 Mostly Cloudy BKN100 61.7 31.6 32% 29.84 0.0
02 19:35 W 14 G 23 10.00 Partly Cloudy SCT060 SCT080 63 30.4 29% 29.86 0.0
02 19:15 W 8 G 18 10.00 Partly Cloudy SCT090 SCT110 64 28 26% 29.85 0.0
02 18:55 W 7 G 16 10.00 Partly Cloudy SCT090 SCT110 64.9 26.2 67.8 61.9 23% 29.85 0.0
02 18:35 W 7 G 20 10.00 Partly Cloudy SCT090 SCT120 64.9 27.3 24% 29.85 0.0
02 18:15 W 9 G 24 10.00 Partly Cloudy SCT080 SCT090 64.9 28 25% 29.85 0.0
02 17:55 W 6 10.00 Mostly Cloudy SCT070 BKN090 65.8 27.5 24% 29.85 0.0
02 17:35 W 7 10.00 Partly Cloudy SCT090 65.7 27.5 24% 29.85 0.0
02 17:15 W 9 G 16 10.00 Partly Cloudy SCT090 66.6 27.5 23% 29.86 0.0
02 16:55 SW 9 10.00 Fair CLR 67.1 29.7 25% 29.86 0.0
02 16:35 W 8 10.00 Fair CLR 66.7 29.1 24% 29.87 0.0
02 16:15 SW 7 G 18 10.00 Fair CLR 67.3 29.5 24% 29.87 0.0
02 15:55 SW 8 10.00 Fair CLR 67.8 29.7 24% 29.89 0.0
02 15:35 W 7 G 21 10.00 Fair CLR 66.4 29.3 25% 29.9 0.0
02 15:15 W 8 10.00 Fair CLR 67.1 29.7 25% 29.91 0.0
02 14:55 SW 12 G 20 10.00 Fair CLR 67.1 29.8 25% 29.93 0.0
02 14:35 W 9 10.00 Fair CLR 65.8 28.8 25% 29.93 0.0
02 14:15 SW 6 G 17 10.00 Fair CLR 64.9 28.4 25% 29.95 0.0
02 13:55 SW 9 G 17 10.00 Fair CLR 63.9 28.9 27% 29.96 0.0
02 13:35 SW 10 G 16 10.00 Fair CLR 63.1 27.7 26% 29.97 0.0
02 13:15 SW 8 10.00 Fair CLR 62.4 28 27% 29.98 0.0
02 12:55 SW 10 G 17 10.00 Fair CLR 61.2 26.8 61.2 38.3 27% 29.99 0.0
02 12:35 SW 12 G 16 10.00 Fair CLR 60.3 26.6 28% 30.01 0.0
02 12:15 SW 10 G 16 10.00 Fair CLR 59.2 27.1 29% 30.02 0.0
02 11:55 SW 6 10.00 Fair CLR 58.3 26.1 29% 30.03 0.0
02 11:35 SW 5 10.00 Fair CLR 57.6 25.3 29% 30.03 0.0
02 11:15 SW 5 10.00 Fair CLR 56.8 25.5 30% 30.04 0.0
02 10:55 W 8 10.00 Partly Cloudy SCT090 56.1 24.6 30% 30.05 0.0
02 10:35 W 7 10.00 Fair CLR 55.6 26.8 33% 30.06 0.0
02 10:15 SW 7 10.00 Fair CLR 54 27.3 36% 30.06 0.0
02 09:55 W 5 10.00 Fair CLR 52.7 28 39% 30.07 0.0
02 09:35 SW 8 10.00 Fair CLR 51.4 28.8 42% 30.07 0.0
02 09:15 SW 6 10.00 Fair CLR 50 29.3 45% 48 30.08 0.0
02 08:55 SW 5 10.00 Fair CLR 49.1 29.7 47% 48 30.08 0.0
02 08:35 SW 5 10.00 Fair CLR 48.2 30.4 50% 47 30.08 0.0
02 08:15 W 6 10.00 Fair CLR 45.7 30.4 55% 43 30.09 0.0
02 07:55 W 3 10.00 Fair CLR 44.1 30.7 60% 30.09 0.0
02 07:35 W 3 10.00 Fair CLR 42.1 30 62% 30.09 0.0
02 07:15 Calm 10.00 Fair CLR 39.9 29.5 66% 30.09 0.0
02 06:55 Calm 10.00 Fair CLR 38.5 28.4 40.3 35.4 67% 30.09 0.0
02 06:35 Calm 10.00 Fair CLR 36.5 28 71% 30.09 0.0
02 06:15 Calm 10.00 Fair CLR 35.8 27.9 73% 30.08 0.0
02 05:55 Calm 10.00 Fair CLR 36.5 27.5 70% 30.08 0.0
02 05:35 Calm 10.00 Fair CLR 36.1 27.9 72% 30.09 0.0
02 05:15 W 3 10.00 Fair CLR 36 27.5 71% 30.09 0.0
02 04:55 W 5 10.00 Fair CLR 35.8 27.7 72% 32 30.08 0.0
02 04:35 Calm 10.00 Fair CLR 36.5 27.5 70% 30.08 0.0
02 04:15 Calm 10.00 Fair CLR 36.1 27.5 71% 30.08 0.0
02 03:55 Calm 10.00 Fair CLR 36.1 27.9 72% 30.08 0.0
02 03:35 Calm 10.00 Fair CLR 36.5 27.1 69% 30.08 0.0
02 03:15 W 5 10.00 Fair CLR 37.6 26.8 65% 35 30.08 0.0
02 02:55 W 3 10.00 Fair CLR 38.3 27 64% 30.08 0.0
02 02:35 Calm 10.00 Fair CLR 38.3 27.5 65% 30.08 0.0
02 02:15 W 3 10.00 Fair CLR 38.8 26.8 62% 30.09 0.0
02 01:55 W 3 10.00 Fair CLR 38.3 27.3 65% 30.09 0.0
02 01:35 W 3 10.00 Fair CLR 38.5 26.2 61% 30.09 0.0
02 01:15 Calm 10.00 Fair CLR 39.4 25.9 59% 30.1 0.0
02 00:55 Calm 10.00 Fair CLR 39.7 27 52.3 38.3 60% 30.1 0.0
02 00:35 Calm 10.00 Fair CLR 40.5 26.1 57% 30.09 0.0
02 00:15 W 3 10.00 Fair CLR 39.2 26.2 60% 30.1 0.0
01 23:55 W 3 10.00 Partly Cloudy SCT085 38.7 27.1 63% 30.1 0.0
01 23:35 Calm 10.00 Partly Cloudy SCT085 39.4 26.1 59% 30.1 0.0
01 23:15 Calm 10.00 Fair CLR 40.5 27 59% 30.1 0.0
01 22:55 Calm 10.00 Partly Cloudy SCT085 41.5 25.3 53% 30.1 0.0
01 22:35 Calm 10.00 Mostly Cloudy BKN085 41.9 25.9 53% 30.1 0.0
01 22:15 Calm 10.00 Fair CLR 41.9 25.3 52% 30.1 0.0
01 21:55 Calm 10.00 Fair CLR 42.4 29.8 61% 30.1 0.0
01 21:35 Calm 10.00 Partly Cloudy SCT085 44.8 24.4 45% 30.1 0.0
01 21:15 Calm 10.00 Partly Cloudy SCT085 42.4 27.1 55% 30.09 0.0
01 20:55 Calm 10.00 Fair CLR 44.1 25.9 49% 30.09 0.0
01 20:35 Calm 10.00 Fair CLR 45.5 23.5 42% 30.08 0.0
01 20:15 Calm 10.00 Fair CLR 48.2 22.1 36% 30.08 0.0
01 19:55 Calm 10.00 Fair CLR 50.2 19.6 30% 30.08 0.0
01 19:35 NW 3 10.00 Partly Cloudy SCT090 51.1 19.9 29% 30.08 0.0
01 19:15 W 5 10.00 Partly Cloudy SCT080 51.8 20.3 29% 30.08 0.0
01 18:55 W 5 10.00 Mostly Cloudy BKN080 52.9 18.5 54.5 49.1 26% 30.08 0.0
01 18:35 NW 5 10.00 Overcast OVC080 54.3 19.2 25% 30.08 0.0
01 18:15 Calm 10.00 Overcast OVC080 52.5 18.1 26% 30.08 0.0
01 17:55 E 6 10.00 Overcast OVC080 53.2 18.7 26% 30.08 0.0
01 17:35 Calm 10.00 Mostly Cloudy BKN080 51.4 18.3 27% 30.08 0.0
01 17:15 NW 6 10.00 Fair CLR 53.4 19.9 27% 30.08 0.0
01 16:55 NW 5 10.00 Fair CLR 54.1 18.5 25% 30.08 0.0
01 16:35 NW 9 10.00 Partly Cloudy SCT065 53.1 19.8 27% 30.09 0.0
01 16:15 NW 6 10.00 Mostly Cloudy BKN065 53.1 19 26% 30.09 0.0
01 15:55 NW 10 G 16 10.00 Mostly Cloudy BKN065 53.2 19.9 27% 30.09 0.0
01 15:35 NW 7 10.00 Partly Cloudy SCT065 SCT080 53.6 21.4 28% 30.1 0.0
01 15:15 NW 6 10.00 Partly Cloudy SCT065 52 20.3 29% 30.1 0.0
01 14:55 Calm 10.00 Mostly Cloudy BKN065 52.7 19.9 28% 30.1 0.0
01 14:35 N 5 10.00 Mostly Cloudy BKN065 52.3 19.6 28% 30.1 0.0
01 14:15 NW 6 G 18 10.00 Mostly Cloudy BKN065 50.9 19.9 29% 30.11 0.0
01 13:55 NW 5 10.00 Mostly Cloudy BKN065 51.8 21.4 30% 30.1 0.0
01 13:35 NE 6 10.00 Mostly Cloudy BKN065 50.4 20.7 31% 30.1 0.0
01 13:15 N 8 10.00 Mostly Cloudy BKN065 50.9 22.1 32% 30.11 0.0
01 12:55 N 8 10.00 Mostly Cloudy BKN065 49.1 21.7 50.7 37.6 34% 46 30.11 0.0
01 12:35 NW 8 10.00 Mostly Cloudy BKN055 48.7 20.1 32% 46 30.12 0.0
01 12:15 N 8 10.00 Mostly Cloudy BKN055 50.7 21.9 32% 30.12 0.0
01 11:55 N 14 G 18 10.00 Mostly Cloudy BKN055 49.6 20.3 31% 45 30.12 0.0
01 11:35 NW 7 10.00 Partly Cloudy SCT055 48 21.4 35% 45 30.12 0.0
01 11:15 NW 9 10.00 Mostly Cloudy BKN055 47.5 21 35% 44 30.12 0.0
01 10:55 NE 8 10.00 Overcast OVC065 48.2 22.5 36% 45 30.12 0.0
01 10:35 N 7 10.00 Mostly Cloudy SCT050 BKN065 46.4 22.1 38% 43 30.12 0.0
01 10:15 NW 8 10.00 Overcast OVC065 46.4 21.9 38% 43 30.12 0.0
01 09:55 NE 6 10.00 Overcast OVC065 45.7 22.1 39% 43 30.12 0.0
01 09:35 N 7 10.00 Overcast OVC065 44.4 21.9 41% 41 30.12 0.0
01 09:15 NE 5 10.00 Overcast OVC065 43.7 21.7 42% 42 30.12 0.0
01 08:55 NE 6 10.00 Overcast OVC065 42.6 23.7 47% 40 30.11 0.0
01 08:35 NE 9 10.00 Overcast OVC065 41.7 23.4 48% 37 30.11 0.0
01 08:15 NE 6 10.00 Overcast OVC065 41 25.3 54% 38 30.1 0.0
01 07:55 Calm 10.00 Overcast OVC065 40.1 26.1 57% 30.1 0.0
01 07:35 E 3 10.00 Mostly Cloudy BKN065 39 27.3 63% 30.09 0.0
01 07:15 Calm 10.00 Overcast OVC065 37.8 27 65% 30.09 0.0
01 06:55 Calm 10.00 Overcast OVC075 37.4 26.4 41.4 37.4 65% 30.08 0.0
01 06:35 Calm 10.00 Mostly Cloudy BKN075 37.6 25.7 62% 30.08 0.0
01 06:15 Calm 10.00 Overcast OVC075 37.8 25.5 61% 30.07 0.0
01 05:55 NE 3 10.00 Overcast OVC075 38.3 25.3 60% 30.07 0.0
01 05:35 NE 3 10.00 Overcast OVC075 38.5 25 58% 30.07 0.0
01 05:15 NE 5 10.00 Overcast OVC075 38.5 24.8 58% 36 30.07 0.0
01 04:55 NE 6 10.00 Overcast OVC075 38.5 25.7 60% 35 30.07 0.0
01 04:35 NE 5 10.00 Overcast OVC075 38.7 25 58% 36 30.07 0.0
01 04:15 NE 6 10.00 Overcast OVC075 38.8 25.2 58% 35 30.06 0.0
01 03:55 NE 6 10.00 Overcast OVC075 38.5 25.3 59% 35 30.06 0.0
01 03:35 NE 6 10.00 Overcast OVC075 38.7 25.7 60% 35 30.06 0.0
01 03:15 NE 6 10.00 Mostly Cloudy BKN075 38.3 25.5 60% 34 30.05 0.0
01 02:55 NE 6 10.00 Partly Cloudy SCT075 38.3 25.7 61% 34 30.05 0.0
01 02:35 NE 5 10.00 Partly Cloudy SCT075 39 25.5 58% 36 30.05 0.0
01 02:15 NE 8 10.00 Mostly Cloudy BKN075 39.7 26.6 59% 35 30.05 0.0
01 01:55 NE 7 10.00 Overcast OVC075 40.5 28.9 64% 36 30.05 0.0
01 01:35 NE 6 10.00 Overcast SCT060 OVC075 41 33.8 76% 38 30.05 0.0
01 01:15 N 5 10.00 Mostly Cloudy SCT060 BKN075 41 34.3 77% 38 30.05 0.0
01 00:55 NW 6 10.00 Partly Cloudy SCT060 40.3 33.8 50 40.1 78% 37 30.04 0.0
01 00:35 NW 3 10.00 Mostly Cloudy SCT060 BKN080 41.4 34 75% 30.04 0.0
01 00:15 NW 5 10.00 Mostly Cloudy BKN080 41.7 33.8 74% 39 30.04 0.0
30 23:55 NW 5 10.00 Mostly Cloudy SCT060 BKN080 41.9 33.6 73% 40 30.04 0.0
30 23:35 NW 3 10.00 Mostly Cloudy BKN060 BKN080 41.2 34.5 77% 30.04 0.0
30 23:15 Calm 10.00 Partly Cloudy SCT060 SCT070 SCT080 42.3 35.1 76% 30.04 0.0
30 22:55 Calm 10.00 Partly Cloudy SCT060 SCT070 43.2 34.7 72% 30.04 0.0
30 22:35 NW 3 10.00 Mostly Cloudy SCT055 BKN070 44.6 34.5 68% 30.04 0.0
30 22:15 NW 5 10.00 Overcast BKN055 OVC070 45 34.9 68% 43 30.04 0.0
30 21:55 NW 5 10.00 Overcast BKN055 OVC120 44.8 35.1 69% 43 30.04 0.0
30 21:35 W 3 10.00 Mostly Cloudy SCT055 BKN120 45.3 34.9 67% 30.03 0.0
30 21:15 W 3 10.00 Mostly Cloudy BKN055 BKN070 45.5 34.3 65% 30.03 0.0
30 20:55 W 3 10.00 Overcast BKN055 OVC065 46.6 34.2 62% 30.02 0.0
30 20:35 NW 5 10.00 Overcast BKN065 OVC085 46.8 27 46% 45 30.02 0.0
30 20:15 NW 3 10.00 Mostly Cloudy SCT065 BKN075 47.5 27 45% 30.02 0.0
30 19:55 N 7 10.00 Mostly Cloudy SCT055 BKN075 48.4 26.4 42% 46 30.01 0.0
30 19:35 N 8 10.00 Overcast SCT055 OVC075 49.6 26.4 41% 47 30.01 0.0
30 19:15 N 8 10.00 Overcast SCT055 SCT075 OVC080 49.3 25.9 40% 46 30.01 0.0
30 18:55 NW 9 10.00 Overcast OVC075 50.5 25.7 53.6 47.7 38% 30.01 0.0
30 18:35 N 8 10.00 Overcast OVC075 51.6 27.5 39% 30.01 0.0
30 18:15 NW 6 10.00 Overcast SCT065 OVC075 50 26.6 40% 48 30.02 0.0
30 17:55 N 7 10.00 Overcast SCT055 OVC065 50 25.7 39% 48 30.02 0.0
30 17:35 N 8 10.00 Overcast SCT055 OVC065 50.9 25.7 38% 30.02 0.0
30 17:15 W 7 10.00 Overcast SCT055 OVC070 51.4 26.4 38% 30.02 0.0
30 16:55 NW 13 G 17 10.00 Overcast BKN055 OVC070 51.3 25.5 37% 30.02 0.0
30 16:35 NW 12 G 16 10.00 Overcast OVC055 53.2 25.9 35% 30.02 0.0
30 16:15 NW 10 10.00 Overcast OVC065 50.9 25.3 37% 30.03 0.0
30 15:55 NW 7 G 17 10.00 Mostly Cloudy BKN065 50.9 25.2 37% 30.04 0.0
30 15:35 NW 9 G 16 10.00 Overcast OVC065 50.2 25.3 38% 30.05 0.0
30 15:15 N 10 10.00 Mostly Cloudy BKN060 51.1 26.4 38% 30.05 0.0
30 14:55 N 15 G 21 10.00 Mostly Cloudy BKN060 51.4 26.1 37% 30.05 0.0
Date Time (cdt) Wind (mph) Vis. (mi.) Weather Sky Cond. Air Dwpt Max. Min. Relative Humidity Wind Chill (°F) Heat Index (°F) altimeter (in) sea level (mb) 1 hr 3 hr 6 hr
6 hour
Temperature (ºF) Pressure Precipitation (in)